Time;durP1;ratioP1;P1;durP2;ratioP2;P2;SDS_P1;SDS_P2;PMS_P1;PMS_P2;Temp;Humidity;BMP_temperature;BMP_pressure;BME280_temperature;BME280_humidity;BME280_pressure;Samples;Min_cycle;Max_cycle;Signal;HPM_P1;HPM_P2
2020/12/18 00:00:32;;;;;;;63.08;36.25;;;;;;;4.86;74.63;101187.20;126399;1100;23338;-79
2020/12/18 00:03:23;;;;;;;65.05;38.20;;;;;;;4.90;74.52;101195.92;126397;1100;23336;-79
2020/12/18 00:05:54;;;;;;;60.03;37.33;;;;;;;4.91;74.80;101197.65;126427;1100;23374;-82
2020/12/18 00:08:23;;;;;;;56.90;38.13;;;;;;;4.89;74.69;101197.77;126539;1100;26868;-81
2020/12/18 00:10:51;;;;;;;59.95;38.67;;;;;;;4.89;74.21;101195.06;126374;1100;24717;-80
2020/12/18 00:13:20;;;;;;;62.43;36.80;;;;;;;4.90;74.32;101198.63;126411;1100;24663;-80
2020/12/18 00:15:48;;;;;;;59.67;39.58;;;;;;;4.92;74.77;101191.23;126362;1100;27913;-81
2020/12/18 00:18:16;;;;;;;60.80;37.30;;;;;;;4.93;74.68;101203.78;126384;1100;23472;-81
2020/12/18 00:20:58;;;;;;;59.60;37.38;;;;;;;4.94;74.98;101202.77;126361;1100;23341;-81
2020/12/18 00:23:29;;;;;;;58.08;37.73;;;;;;;4.95;74.79;101193.69;126376;1100;23441;-81
2020/12/18 00:25:57;;;;;;;61.08;38.88;;;;;;;4.96;74.37;101200.80;126400;1100;27000;-80
2020/12/18 00:28:25;;;;;;;57.37;37.67;;;;;;;4.97;74.14;101205.23;126456;1100;24305;-81
2020/12/18 00:30:56;;;;;;;58.28;37.50;;;;;;;4.97;74.64;101199.82;126383;1100;23437;-81
2020/12/18 00:33:27;;;;;;;65.95;39.42;;;;;;;4.98;74.30;101208.78;126410;1100;23387;-80
2020/12/18 00:35:55;;;;;;;59.95;38.30;;;;;;;5.01;75.02;101205.80;126457;1100;23389;-82
2020/12/18 00:38:23;;;;;;;59.42;37.90;;;;;;;5.02;74.56;101208.38;126378;1100;23780;-81
2020/12/18 00:40:52;;;;;;;67.65;41.28;;;;;;;5.04;74.96;101217.20;126420;1100;23399;-81
2020/12/18 00:43:20;;;;;;;59.30;39.08;;;;;;;5.05;74.71;101208.09;126372;1100;24021;-82
2020/12/18 00:45:48;;;;;;;60.00;38.88;;;;;;;5.06;74.44;101212.52;126453;1100;23403;-80
2020/12/18 00:48:17;;;;;;;53.15;35.80;;;;;;;5.06;74.85;101211.67;126463;1100;25053;-80
2020/12/18 00:50:46;;;;;;;56.88;37.65;;;;;;;5.05;74.47;101210.80;126512;1100;23434;-80
2020/12/18 00:53:14;;;;;;;60.92;38.33;;;;;;;5.06;74.76;101212.52;126420;1100;23400;-81
2020/12/18 00:55:43;;;;;;;59.13;38.73;;;;;;;5.07;74.82;101222.34;126375;1100;23389;-80
2020/12/18 00:58:13;;;;;;;57.93;39.60;;;;;;;5.06;74.97;101217.94;126357;1101;23343;-80
2020/12/18 01:00:42;;;;;;;61.92;38.75;;;;;;;5.09;74.81;101227.63;126452;1100;23392;-80
2020/12/18 01:03:17;;;;;;;65.00;40.40;;;;;;;5.09;74.80;101233.03;126426;1100;23519;-80
2020/12/18 01:05:52;;;;;;;57.43;39.77;;;;;;;5.08;74.61;101232.18;126399;1100;23438;-79
2020/12/18 01:08:20;;;;;;;59.47;38.80;;;;;;;5.07;75.10;101226.89;126367;1100;23386;-79
2020/12/18 01:10:49;;;;;;;62.05;37.95;;;;;;;5.08;75.14;101228.62;126299;1100;23346;-79
2020/12/18 01:13:19;;;;;;;64.27;41.30;;;;;;;5.08;74.53;101234.88;126385;1100;23438;-81
2020/12/18 01:15:51;;;;;;;;;;;;;;;5.05;75.03;101232.43;126444;1100;24117;-80
2020/12/18 01:18:28;;;;;;;63.87;39.35;;;;;;;5.04;74.96;101238.00;126439;1100;21504;-80
2020/12/18 01:21:00;;;;;;;58.15;38.17;;;;;;;5.06;75.10;101234.16;126158;1101;23314;-80
2020/12/18 01:23:35;;;;;;;54.30;37.60;;;;;;;5.09;75.03;101233.87;126385;1100;23334;-79
2020/12/18 01:26:07;;;;;;;63.30;41.05;;;;;;;5.15;75.09;101234.34;126338;1101;23374;-80
2020/12/18 01:28:36;;;;;;;54.80;36.97;;;;;;;5.16;75.36;101231.48;126394;1100;23339;-81
2020/12/18 01:31:07;;;;;;;56.15;38.17;;;;;;;5.19;75.68;101239.35;126361;1100;23345;-79
2020/12/18 01:33:38;;;;;;;55.95;38.60;;;;;;;5.22;75.34;101243.63;126371;1100;23539;-81
2020/12/18 01:36:13;;;;;;;60.90;39.85;;;;;;;5.24;75.51;101241.64;126376;1100;23355;-80
2020/12/18 01:38:43;;;;;;;59.03;39.40;;;;;;;5.24;74.71;101241.64;126399;1100;25210;-80
2020/12/18 01:41:13;;;;;;;61.23;38.13;;;;;;;5.24;74.83;101247.91;126392;1100;23376;-81
2020/12/18 01:43:41;;;;;;;58.10;38.97;;;;;;;5.25;74.97;101243.37;126383;1100;27014;-83
2020/12/18 01:46:13;;;;;;;59.33;38.30;;;;;;;5.24;75.18;101247.91;126388;1100;23731;-81
2020/12/18 01:48:48;;;;;;;63.48;39.33;;;;;;;5.25;75.33;101248.79;126401;1100;23326;-82
2020/12/18 01:51:19;;;;;;;63.58;39.33;;;;;;;5.24;74.83;101247.05;126395;1100;23342;-82
2020/12/18 01:53:48;;;;;;;66.87;41.13;;;;;;;5.27;75.13;101252.19;126371;1100;23972;-81
2020/12/18 01:56:27;;;;;;;60.15;39.67;;;;;;;5.29;74.85;101244.79;126395;1100;26565;-80
2020/12/18 01:59:08;;;;;;;60.80;36.68;;;;;;;5.32;75.08;101260.77;126328;1100;23403;-81
2020/12/18 02:01:56;;;;;;;62.35;39.48;;;;;;;5.35;75.23;101260.48;126426;1100;23447;-81
2020/12/18 02:04:42;;;;;;;58.10;38.10;;;;;;;5.37;75.29;101261.21;126420;1100;24336;-80
2020/12/18 02:07:22;;;;;;;57.50;39.40;;;;;;;5.39;75.18;101259.23;126432;1100;27881;-80
2020/12/18 02:10:11;;;;;;;55.78;35.85;;;;;;;5.42;75.51;101260.80;126423;1100;23908;-79
2020/12/18 02:12:42;;;;;;;53.13;35.17;;;;;;;5.44;75.33;101259.70;126397;1100;23345;-79
2020/12/18 02:15:12;;;;;;;55.15;35.40;;;;;;;5.43;74.82;101263.38;126351;1100;23334;-81
2020/12/18 02:18:13;;;;;;;50.63;34.10;;;;;;;5.48;75.54;101271.97;126336;1100;23792;-80
2020/12/18 02:20:50;;;;;;;56.33;36.33;;;;;;;5.49;75.50;101267.41;126360;1100;23434;-80
2020/12/18 02:23:19;;;;;;;56.40;36.73;;;;;;;5.50;75.39;101269.98;126406;1100;23386;-80
2020/12/18 02:26:18;;;;;;;54.15;35.80;;;;;;;5.51;74.92;101271.68;126404;1100;23346;-80
2020/12/18 02:28:50;;;;;;;57.33;33.83;;;;;;;5.53;75.41;101271.55;126441;1100;23388;-80
2020/12/18 02:31:26;;;;;;;54.38;34.65;;;;;;;5.53;75.18;101266.14;126392;1100;23552;-81
2020/12/18 02:34:13;;;;;;;53.78;35.92;;;;;;;5.55;75.38;101272.27;126478;1100;23784;-80
2020/12/18 02:36:46;;;;;;;52.27;35.23;;;;;;;5.58;74.76;101269.28;126385;1100;23346;-80
2020/12/18 02:39:18;;;;;;;49.53;33.45;;;;;;;5.57;74.80;101270.29;126434;1100;23410;-81
2020/12/18 02:41:52;;;;;;;54.85;35.35;;;;;;;5.59;74.74;101267.42;126401;1100;23345;-79
2020/12/18 02:44:26;;;;;;;57.83;36.75;;;;;;;5.60;74.95;101270.00;126439;1100;27909;-79
2020/12/18 02:47:13;;;;;;;54.58;34.83;;;;;;;5.60;75.11;101272.70;126417;1100;23480;-81
2020/12/18 02:49:42;;;;;;;52.90;34.50;;;;;;;5.62;74.87;101269.88;126550;1100;23623;-81
2020/12/18 02:52:31;;;;;;;51.65;32.40;;;;;;;5.63;74.51;101263.45;126431;1100;23346;-80
2020/12/18 02:55:17;;;;;;;52.80;32.63;;;;;;;5.62;75.17;101270.72;126380;1100;25051;-79
2020/12/18 02:58:10;;;;;;;48.03;32.57;;;;;;;5.61;74.94;101266.31;126460;1100;23346;-81
2020/12/18 03:00:52;;;;;;;52.13;32.48;;;;;;;5.60;74.76;101269.16;126393;1100;23334;-80
2020/12/18 03:03:25;;;;;;;51.05;32.00;;;;;;;5.59;74.90;101270.13;126424;1100;23347;-81
2020/12/18 03:06:10;;;;;;;52.67;32.48;;;;;;;5.61;75.19;101270.84;126382;1100;23396;-79
2020/12/18 03:08:47;;;;;;;46.58;31.23;;;;;;;5.61;74.88;101270.84;126420;1100;23443;-80
2020/12/18 03:11:16;;;;;;;50.60;31.73;;;;;;;5.63;74.94;101266.16;126350;1100;26443;-81
2020/12/18 03:13:47;;;;;;;52.93;34.18;;;;;;;5.62;75.08;101267.16;126478;1100;23388;-79
2020/12/18 03:16:16;;;;;;;48.17;33.40;;;;;;;5.64;75.24;101267.89;126433;1100;23397;-80
2020/12/18 03:19:00;;;;;;;51.50;32.17;;;;;;;5.62;74.67;101272.58;126400;1100;26995;-79
2020/12/18 03:21:28;;;;;;;56.88;34.40;;;;;;;5.60;75.00;101270.00;126488;1100;23386;-80
2020/12/18 03:24:21;;;;;;;46.68;30.72;;;;;;;5.61;75.32;101270.84;126426;1100;23401;-79
2020/12/18 03:27:12;;;;;;;48.23;33.02;;;;;;;5.62;75.02;101269.88;126346;1100;23403;-80
2020/12/18 03:29:49;;;;;;;46.80;31.02;;;;;;;5.61;75.13;101260.02;126369;1101;23401;-80
2020/12/18 03:32:20;;;;;;;45.88;30.65;;;;;;;5.61;74.72;101271.73;126419;1100;23375;-81
2020/12/18 03:34:59;;;;;;;48.80;33.92;;;;;;;5.60;74.88;101271.86;126380;1100;26861;-79
2020/12/18 03:37:31;;;;;;;46.60;32.00;;;;;;;5.61;74.69;101270.84;126365;1101;26437;-79
2020/12/18 03:40:03;;;;;;;48.20;30.80;;;;;;;5.63;74.79;101274.28;126655;1100;24830;-79
2020/12/18 03:42:37;;;;;;;47.85;31.27;;;;;;;5.63;75.25;101275.16;126813;1100;23492;-80
2020/12/18 03:45:06;;;;;;;48.83;32.90;;;;;;;5.64;75.30;101270.59;126883;1100;23437;-79
2020/12/18 03:48:02;;;;;;;53.58;30.72;;;;;;;5.65;75.10;101277.70;126886;1101;23331;-79
2020/12/18 03:50:56;;;;;;;51.15;31.80;;;;;;;5.66;75.24;101279.44;126781;1100;23345;-80
2020/12/18 03:53:30;;;;;;;49.83;33.48;;;;;;;5.67;74.93;101267.59;126817;1100;23301;-79
2020/12/18 03:56:08;;;;;;;44.90;32.08;;;;;;;5.69;75.23;101281.86;126517;1100;24432;-80
2020/12/18 03:58:56;;;;;;;48.75;31.68;;;;;;;5.70;75.05;101278.17;126314;1100;23324;-78
2020/12/18 04:01:48;;;;;;;54.03;31.75;;;;;;;5.68;75.55;101272.03;126446;1100;23401;-78
2020/12/18 04:04:16;;;;;;;47.70;31.27;;;;;;;5.69;74.90;101279.15;126481;1100;26421;-79
2020/12/18 04:06:45;;;;;;;46.58;31.52;;;;;;;5.71;74.89;101285.28;126406;1100;26881;-79
2020/12/18 04:09:14;;;;;;;51.37;29.98;;;;;;;5.71;75.62;101282.58;126489;1100;24851;-79
2020/12/18 04:11:50;;;;;;;42.23;30.57;;;;;;;5.72;74.96;101278.89;126483;1100;27160;-79
2020/12/18 04:14:39;;;;;;;45.95;30.97;;;;;;;5.72;75.84;101278.89;126540;1100;23479;-79
2020/12/18 04:17:21;;;;;;;50.43;32.03;;;;;;;5.72;75.73;101285.16;126506;1100;23400;-80
2020/12/18 04:19:54;;;;;;;51.80;32.80;;;;;;;5.72;75.35;101295.14;126461;1100;23346;-78
2020/12/18 04:22:23;;;;;;;43.47;29.83;;;;;;;5.75;74.98;101300.27;126555;1100;23481;-79
2020/12/18 04:24:57;;;;;;;47.78;31.73;;;;;;;5.77;75.89;101295.57;126472;1100;24839;-80
2020/12/18 04:27:30;;;;;;;46.00;31.80;;;;;;;5.79;75.50;101293.58;126493;1100;23336;-78
2020/12/18 04:29:59;;;;;;;47.78;31.33;;;;;;;5.81;75.69;101299.72;126541;1100;23383;-77
2020/12/18 04:32:28;;;;;;;51.37;31.97;;;;;;;5.83;75.42;101305.86;126494;1100;23362;-77
2020/12/18 04:34:57;;;;;;;44.42;30.72;;;;;;;5.86;75.30;101304.72;126455;1100;23400;-78
2020/12/18 04:37:42;;;;;;;48.23;31.37;;;;;;;5.85;74.98;101301.16;126447;1101;23650;-78
2020/12/18 04:40:20;;;;;;;47.93;31.85;;;;;;;5.85;75.07;101303.88;126496;1100;23399;-79
2020/12/18 04:43:01;;;;;;;49.65;32.55;;;;;;;5.84;75.21;101304.00;126508;1100;23474;-79
2020/12/18 04:45:31;;;;;;;49.00;31.57;;;;;;;5.83;75.45;101299.59;126625;1099;23372;-79
2020/12/18 04:48:08;;;;;;;53.58;33.48;;;;;;;5.80;75.34;101303.41;126448;1100;23588;-79
2020/12/18 04:50:41;;;;;;;45.33;31.10;;;;;;;5.79;75.17;101296.29;126581;1100;26578;-79
2020/12/18 04:53:36;;;;;;;47.48;32.38;;;;;;;5.77;75.28;101300.14;126495;1100;23392;-80
2020/12/18 04:56:14;;;;;;;47.45;30.85;;;;;;;5.73;75.21;101294.98;126473;1100;23522;-79
2020/12/18 04:58:56;;;;;;;51.53;33.30;;;;;;;5.69;74.81;101306.22;126464;1100;23344;-79
2020/12/18 05:01:34;;;;;;;47.37;31.40;;;;;;;5.68;75.07;101302.66;126484;1100;26570;-79
2020/12/18 05:04:06;;;;;;;47.43;32.75;;;;;;;5.66;75.64;101306.52;126483;1100;23345;-78
2020/12/18 05:06:39;;;;;;;48.87;34.23;;;;;;;5.65;75.02;101307.48;126508;1100;23362;-78
2020/12/18 05:09:11;;;;;;;51.80;33.90;;;;;;;5.60;75.31;101313.31;126494;1100;23346;-79
2020/12/18 05:11:39;;;;;;;49.93;34.13;;;;;;;5.59;75.71;101316.14;126516;1100;23391;-79
2020/12/18 05:14:11;;;;;;;49.50;35.08;;;;;;;5.53;75.19;101307.59;126470;1100;23349;-78
2020/12/18 05:16:52;;;;;;;61.02;47.48;;;;;;;5.50;75.11;101310.58;126453;1100;23344;-80
2020/12/18 05:19:44;;;;;;;52.60;36.53;;;;;;;5.46;75.21;101317.25;126462;1100;23930;-82
2020/12/18 05:22:14;;;;;;;50.15;34.08;;;;;;;5.43;75.31;101316.66;126578;1100;24938;-79
2020/12/18 05:24:59;;;;;;;54.67;33.53;;;;;;;5.39;74.99;101320.62;126486;1100;23326;-82
2020/12/18 05:27:29;;;;;;;48.20;33.00;;;;;;;5.36;75.59;101327.16;126463;1100;23319;-79
2020/12/18 05:30:07;;;;;;;51.65;32.17;;;;;;;5.34;75.69;101328.30;126608;1100;23378;-79
2020/12/18 05:32:37;;;;;;;49.00;32.35;;;;;;;5.31;75.68;101323.98;126457;1100;26827;-81
2020/12/18 05:35:25;;;;;;;53.10;31.52;;;;;;;5.30;76.10;101324.98;126485;1100;23328;-79
2020/12/18 05:38:16;;;;;;;47.07;33.27;;;;;;;5.27;75.51;101320.70;126537;1100;23376;-79
2020/12/18 05:41:23;;;;;;;62.65;38.15;;;;;;;5.27;75.79;101325.23;126025;1103;23329;-80
2020/12/18 05:44:04;;;;;;;55.92;38.28;;;;;;;5.29;75.98;101334.08;126122;1104;23408;-79
2020/12/18 05:46:53;;;;;;;57.05;37.35;;;;;;;5.29;76.00;101336.78;125967;1104;23370;-80
2020/12/18 05:49:33;;;;;;;60.90;39.70;;;;;;;5.30;75.67;101330.40;126094;1102;23530;-81
2020/12/18 05:52:20;;;;;;;57.75;37.63;;;;;;;5.32;76.25;101331.97;126186;1101;27125;-83
2020/12/18 05:55:12;;;;;;;52.73;36.33;;;;;;;5.33;76.52;101332.82;126163;1102;23442;-78
2020/12/18 05:58:02;;;;;;;54.38;35.75;;;;;;;5.34;76.54;101331.84;126305;1102;23349;-78
2020/12/18 06:00:48;;;;;;;57.05;36.50;;;;;;;5.36;76.37;101335.28;126169;1101;23352;-79
2020/12/18 06:04:01;;;;;;;57.17;36.03;;;;;;;5.39;76.42;101334.14;126243;1103;23391;-79
2020/12/18 06:06:35;;;;;;;61.68;37.42;;;;;;;5.41;76.27;101343.84;126175;1101;23871;-79
2020/12/18 06:09:04;;;;;;;59.33;38.35;;;;;;;5.46;76.26;101341.61;126143;1103;23369;-81
2020/12/18 06:11:35;;;;;;;70.70;47.90;;;;;;;5.52;76.74;101346.45;126177;1102;23497;-79
2020/12/18 06:14:13;;;;;;;105.73;67.53;;;;;;;5.56;76.96;101344.34;126190;1101;23811;-80
2020/12/18 06:16:53;;;;;;;68.45;45.23;;;;;;;5.60;76.59;101348.50;126373;1099;23858;-81
2020/12/18 06:19:42;;;;;;;56.10;36.80;;;;;;;5.66;76.67;101357.95;126455;1100;26865;-80
2020/12/18 06:22:13;;;;;;;53.90;36.17;;;;;;;5.68;76.97;101356.81;126435;1100;24390;-78
2020/12/18 06:25:04;;;;;;;59.18;39.75;;;;;;;5.70;76.06;101360.25;126481;1100;26833;-79
2020/12/18 06:28:02;;;;;;;61.42;40.00;;;;;;;5.73;76.22;101362.67;126207;1100;23452;-80
2020/12/18 06:31:26;;;;;;;52.08;34.70;;;;;;;5.76;76.74;101369.69;126422;1100;23333;-81
2020/12/18 06:34:28;;;;;;;49.23;33.23;;;;;;;5.80;76.59;101372.96;126464;1100;23341;-79
2020/12/18 06:37:00;;;;;;;55.95;34.63;;;;;;;5.81;76.30;101383.66;126436;1100;23325;-80
2020/12/18 06:39:47;;;;;;;49.42;32.85;;;;;;;5.83;76.53;101378.97;126390;1100;23347;-80
2020/12/18 06:42:46;;;;;;;55.05;36.50;;;;;;;5.84;76.80;101379.82;126082;1100;23466;-78
2020/12/18 06:45:35;;;;;;;49.10;34.10;;;;;;;5.86;75.94;101380.55;126240;1100;23531;-81
2020/12/18 06:48:26;;;;;;;64.00;40.00;;;;;;;5.86;75.77;101384.10;126394;1100;23519;-81
2020/12/18 06:51:28;;;;;;;59.85;39.03;;;;;;;5.88;75.96;101383.98;126115;1100;27121;-81
2020/12/18 06:54:23;;;;;;;59.00;39.13;;;;;;;5.90;76.28;101401.80;126702;1100;23346;-83
2020/12/18 06:57:21;;;;;;;60.30;37.85;;;;;;;5.90;76.44;101395.53;126696;1100;24983;-83
2020/12/18 06:59:50;;;;;;;55.92;37.95;;;;;;;5.92;76.43;101402.52;126477;1100;23482;-81
2020/12/18 07:02:35;;;;;;;69.70;45.27;;;;;;;5.93;76.43;101395.25;126480;1100;23588;-81
2020/12/18 07:05:03;;;;;;;65.70;43.17;;;;;;;5.92;76.28;101398.97;126497;1100;23401;-82
2020/12/18 07:07:41;;;;;;;73.22;47.75;;;;;;;5.89;75.92;101402.81;126443;1100;23398;-81
2020/12/18 07:10:11;;;;;;;82.57;58.20;;;;;;;5.87;75.49;101402.09;126459;1100;23424;-83
2020/12/18 07:12:39;;;;;;;71.87;47.33;;;;;;;5.88;75.63;101413.77;126428;1100;26826;-82
2020/12/18 07:15:07;;;;;;;80.15;52.85;;;;;;;5.88;75.60;101405.64;126521;1100;23315;-81
2020/12/18 07:17:46;;;;;;;71.42;44.65;;;;;;;5.90;76.27;101418.05;126469;1100;23378;-81
2020/12/18 07:20:15;;;;;;;64.90;42.20;;;;;;;5.90;76.19;101415.34;126591;1100;26389;-82
2020/12/18 07:22:43;;;;;;;66.53;41.30;;;;;;;5.92;75.90;101413.36;126563;1100;23404;-81
2020/12/18 07:25:12;;;;;;;67.67;42.30;;;;;;;5.95;76.26;101416.82;126443;1100;23401;-81
2020/12/18 07:27:41;;;;;;;64.17;39.18;;;;;;;5.98;76.00;101427.41;126508;1100;24182;-81
2020/12/18 07:30:20;;;;;;;63.70;39.25;;;;;;;6.01;76.04;101424.41;126505;1100;23327;-81
2020/12/18 07:32:50;;;;;;;55.23;36.63;;;;;;;6.03;75.90;101427.84;126535;1100;23360;-78
2020/12/18 07:35:19;;;;;;;55.88;37.00;;;;;;;6.03;76.03;101431.41;126893;1100;26956;-83
2020/12/18 07:37:47;;;;;;;65.10;39.95;;;;;;;6.03;75.21;101427.84;126347;1101;24131;-81
2020/12/18 07:40:16;;;;;;;68.22;41.55;;;;;;;6.04;75.24;101430.42;126979;1100;23523;-81
2020/12/18 07:42:46;;;;;;;59.73;39.75;;;;;;;6.04;75.70;101433.13;126915;1100;23348;-82
2020/12/18 07:45:16;;;;;;;65.28;39.40;;;;;;;6.08;75.79;101436.41;126850;1100;23456;-81
2020/12/18 07:47:45;;;;;;;63.78;40.40;;;;;;;6.09;75.32;101425.45;126883;1100;23434;-81
2020/12/18 07:50:13;;;;;;;55.78;37.78;;;;;;;6.11;75.52;101431.59;126816;1100;23536;-83
2020/12/18 07:52:42;;;;;;;59.45;39.27;;;;;;;6.13;75.50;101426.89;126630;1100;24771;-85
2020/12/18 07:55:27;;;;;;;63.52;37.48;;;;;;;6.15;76.13;101432.18;127043;1100;23400;-85
2020/12/18 07:57:57;;;;;;;55.52;36.90;;;;;;;6.19;75.79;101430.92;126892;1100;23328;-85
2020/12/18 08:00:25;;;;;;;59.00;36.20;;;;;;;6.21;75.29;101439.77;126932;1100;23519;-85
2020/12/18 08:02:54;;;;;;;58.00;36.90;;;;;;;6.23;75.19;101442.32;126882;1100;23410;-85
2020/12/18 08:05:22;;;;;;;61.33;39.30;;;;;;;6.27;76.02;101441.94;126934;1100;27958;-84
2020/12/18 08:07:58;;;;;;;60.73;39.38;;;;;;;6.30;75.78;101438.94;126859;1100;23339;-86
2020/12/18 08:10:26;;;;;;;62.65;37.48;;;;;;;6.31;75.46;101437.08;126955;1100;23467;-84
2020/12/18 08:12:55;;;;;;;60.55;37.42;;;;;;;6.32;75.10;101439.66;126997;1100;23439;-85
2020/12/18 08:15:23;;;;;;;68.23;44.10;;;;;;;6.32;74.97;101445.08;126914;1100;23404;-84
2020/12/18 08:17:58;;;;;;;62.75;41.33;;;;;;;6.33;75.22;101445.93;127061;1100;26437;-85
2020/12/18 08:20:27;;;;;;;62.17;37.30;;;;;;;6.34;75.34;101440.38;126857;1100;24804;-86
2020/12/18 08:22:57;;;;;;;64.22;41.30;;;;;;;6.36;74.91;101450.22;126896;1100;23389;-85
2020/12/18 08:25:27;;;;;;;68.85;42.62;;;;;;;6.33;74.82;101452.20;126915;1100;23291;-84
2020/12/18 08:27:56;;;;;;;67.47;42.38;;;;;;;6.33;74.68;101452.20;126925;1100;23327;-82
2020/12/18 08:30:31;;;;;;;66.75;41.65;;;;;;;6.33;75.16;101456.77;126910;1100;23478;-83
2020/12/18 08:33:00;;;;;;;73.57;44.98;;;;;;;6.34;74.95;101453.94;126903;1100;23540;-83
2020/12/18 08:35:29;;;;;;;82.42;51.10;;;;;;;6.34;75.56;101456.64;126944;1100;23875;-86
2020/12/18 08:38:10;;;;;;;75.40;48.80;;;;;;;6.34;74.89;101462.06;126516;1100;23404;-84
2020/12/18 08:40:43;;;;;;;80.63;51.60;;;;;;;6.36;74.87;101463.77;126849;1102;24009;-84
2020/12/18 08:43:13;;;;;;;73.20;48.90;;;;;;;6.38;74.71;101464.48;127555;1101;23401;-85
2020/12/18 08:45:44;;;;;;;76.53;47.83;;;;;;;6.38;75.42;101457.23;126901;1102;23398;-84
2020/12/18 08:48:19;;;;;;;75.55;45.28;;;;;;;6.39;74.97;101466.22;126547;1100;23502;-85
2020/12/18 08:50:59;;;;;;;90.83;50.83;;;;;;;6.40;75.06;101470.63;127860;1102;23344;-85
2020/12/18 08:53:34;;;;;;;82.73;45.20;;;;;;;6.44;74.70;101474.78;128264;1100;23370;-84
2020/12/18 08:56:08;;;;;;;65.45;44.20;;;;;;;6.48;74.96;101474.37;127918;1100;23539;-84
2020/12/18 08:58:37;;;;;;;72.17;44.48;;;;;;;6.49;75.33;101469.83;127652;1100;23443;-85
2020/12/18 09:01:23;;;;;;;90.35;49.03;;;;;;;6.48;74.95;101471.66;127596;1100;26366;-84
2020/12/18 09:03:51;;;;;;;66.85;43.33;;;;;;;6.51;74.89;101473.27;127489;1100;23475;-84
2020/12/18 09:06:22;;;;;;;71.17;45.78;;;;;;;6.50;75.11;101474.24;127138;1100;24799;-79
2020/12/18 09:09:05;;;;;;;71.25;42.53;;;;;;;6.50;74.90;101472.38;126448;1100;23347;-81
2020/12/18 09:11:34;;;;;;;73.00;45.75;;;;;;;6.53;74.92;101480.26;126474;1100;23334;-79
2020/12/18 09:14:02;;;;;;;79.30;49.67;;;;;;;6.54;74.67;101479.24;126392;1100;24887;-79
2020/12/18 09:16:30;;;;;;;66.70;44.90;;;;;;;6.54;74.48;101476.53;126357;1100;26412;-79
2020/12/18 09:18:59;;;;;;;74.15;47.80;;;;;;;6.56;74.95;101480.98;127130;1100;26819;-89
2020/12/18 09:21:30;;;;;;;77.90;54.13;;;;;;;6.60;74.95;101472.42;127426;1101;26881;-85
2020/12/18 09:23:59;;;;;;;80.42;49.80;;;;;;;6.63;74.56;101484.84;126529;1101;23438;-82
2020/12/18 09:26:30;;;;;;;69.92;49.20;;;;;;;6.64;74.96;101479.29;126538;1100;23321;-84
2020/12/18 09:28:59;;;;;;;83.67;54.23;;;;;;;6.66;74.60;101482.72;126483;1100;23325;-79
2020/12/18 09:31:28;;;;;;;68.85;44.85;;;;;;;6.68;74.57;101479.88;126492;1100;23455;-78
2020/12/18 09:33:57;;;;;;;68.65;46.70;;;;;;;6.70;74.77;101477.86;126432;1100;23666;-77
2020/12/18 09:36:26;;;;;;;73.10;50.38;;;;;;;6.71;74.20;101482.30;126386;1100;25898;-80
2020/12/18 09:38:55;;;;;;;67.60;47.33;;;;;;;6.72;74.33;101474.03;126436;1100;23894;-80
2020/12/18 09:41:25;;;;;;;68.37;47.03;;;;;;;6.77;74.98;101478.19;126483;1100;23389;-78
2020/12/18 09:43:54;;;;;;;70.40;46.40;;;;;;;6.79;74.21;101476.19;126427;1100;23417;-77
2020/12/18 09:46:23;;;;;;;70.65;45.95;;;;;;;6.84;75.13;101482.05;126447;1099;23489;-79
2020/12/18 09:48:52;;;;;;;66.28;45.00;;;;;;;6.90;74.97;101481.48;126472;1100;24476;-79
2020/12/18 09:51:20;;;;;;;58.45;40.67;;;;;;;6.94;74.41;101472.08;126439;1100;23536;-80
2020/12/18 09:53:48;;;;;;;56.13;35.90;;;;;;;6.95;74.32;101477.34;126432;1100;23399;-78
2020/12/18 09:56:17;;;;;;;58.75;34.73;;;;;;;6.99;74.30;101474.36;126412;1100;28032;-78
2020/12/18 09:58:46;;;;;;;59.63;39.53;;;;;;;7.02;74.20;101474.95;126478;1100;23386;-78
2020/12/18 10:01:20;;;;;;;67.58;42.40;;;;;;;7.05;74.35;101476.52;126470;1100;26366;-78
2020/12/18 10:03:53;;;;;;;64.83;45.50;;;;;;;7.09;73.63;101472.52;126446;1100;23349;-77
2020/12/18 10:06:25;;;;;;;70.85;48.75;;;;;;;7.11;73.58;101467.81;126476;1100;23398;-78
2020/12/18 10:08:55;;;;;;;65.15;41.95;;;;;;;7.18;74.19;101474.37;126430;1100;23456;-78
2020/12/18 10:11:28;;;;;;;58.13;40.40;;;;;;;7.21;74.16;101468.69;126424;1100;23349;-78
2020/12/18 10:13:57;;;;;;;58.65;39.48;;;;;;;7.27;73.64;101473.52;126410;1100;23346;-79
2020/12/18 10:16:25;;;;;;;74.92;52.43;;;;;;;7.34;74.26;101469.25;126435;1100;23336;-79
2020/12/18 10:18:54;;;;;;;63.23;46.92;;;;;;;7.42;73.38;101464.95;126383;1100;23389;-78
2020/12/18 10:21:23;;;;;;;70.25;48.02;;;;;;;7.50;73.66;101475.95;126437;1100;26578;-78
2020/12/18 10:23:51;;;;;;;78.02;51.70;;;;;;;7.55;73.50;101471.81;126361;1100;23384;-76
2020/12/18 10:26:19;;;;;;;60.80;39.15;;;;;;;7.59;72.77;101471.52;126420;1100;23438;-79
2020/12/18 10:28:48;;;;;;;58.17;37.20;;;;;;;7.60;73.45;101468.66;126365;1100;23389;-79
2020/12/18 10:31:16;;;;;;;56.40;37.42;;;;;;;7.62;73.30;101465.77;126469;1100;23332;-78
2020/12/18 10:33:45;;;;;;;79.30;50.03;;;;;;;7.62;73.11;101463.06;126453;1100;25867;-78
2020/12/18 10:36:13;;;;;;;66.25;41.10;;;;;;;7.66;73.00;101465.37;126386;1100;23334;-80
2020/12/18 10:38:42;;;;;;;57.13;35.77;;;;;;;7.72;72.94;101467.50;126451;1100;26535;-79
2020/12/18 10:41:10;;;;;;;53.92;34.48;;;;;;;7.77;73.10;101464.34;126440;1100;23352;-79
2020/12/18 10:43:41;;;;;;;55.03;35.48;;;;;;;7.80;73.21;101460.47;126447;1100;23345;-79
2020/12/18 10:46:11;;;;;;;52.60;36.28;;;;;;;7.84;72.31;101470.05;126438;1100;24975;-79
2020/12/18 10:48:39;;;;;;;52.38;34.50;;;;;;;7.89;72.44;101462.30;126429;1100;23340;-81
2020/12/18 10:51:11;;;;;;;57.50;35.08;;;;;;;7.94;72.07;101454.58;126622;1100;25901;-81
2020/12/18 10:53:48;;;;;;;59.50;39.25;;;;;;;7.96;72.49;101461.58;127277;1100;23328;-80
2020/12/18 10:56:16;;;;;;;62.20;39.03;;;;;;;8.01;72.27;101458.41;126698;1100;24898;-81
2020/12/18 10:58:44;;;;;;;57.25;36.15;;;;;;;8.02;72.34;101456.55;126637;1100;23431;-80
2020/12/18 11:01:17;;;;;;;51.13;33.98;;;;;;;8.05;71.94;101456.27;126754;1100;23346;-82
2020/12/18 11:03:46;;;;;;;61.95;38.73;;;;;;;8.10;72.41;101464.82;126637;1100;23958;-81
2020/12/18 11:06:14;;;;;;;57.73;37.17;;;;;;;8.14;72.00;101461.66;126783;1100;23338;-81
2020/12/18 11:08:43;;;;;;;58.92;36.88;;;;;;;8.20;71.87;101460.21;126619;1100;24980;-81
2020/12/18 11:11:14;;;;;;;59.77;39.35;;;;;;;8.23;72.33;101454.47;126636;1100;23381;-80
2020/12/18 11:13:42;;;;;;;64.87;40.45;;;;;;;8.28;71.87;101456.73;126620;1100;26424;-81
2020/12/18 11:16:11;;;;;;;62.05;40.78;;;;;;;8.30;71.92;101457.44;126648;1100;26393;-82
2020/12/18 11:18:40;;;;;;;48.87;31.67;;;;;;;8.24;70.96;101458.91;126609;1100;24343;-80
2020/12/18 11:21:08;;;;;;;49.58;34.38;;;;;;;8.25;71.35;101449.73;126565;1100;23239;-80
2020/12/18 11:23:36;;;;;;;60.73;39.13;;;;;;;8.28;71.38;101456.73;126644;1100;24434;-80
2020/12/18 11:26:05;;;;;;;49.95;31.97;;;;;;;8.27;71.19;101455.03;126652;1100;24982;-82
2020/12/18 11:28:33;;;;;;;49.13;34.08;;;;;;;8.25;71.02;101457.89;126625;1100;26392;-81
2020/12/18 11:31:03;;;;;;;51.35;36.33;;;;;;;8.22;71.08;101458.20;126613;1100;23426;-80
2020/12/18 11:33:32;;;;;;;53.50;36.58;;;;;;;8.21;71.12;101459.19;126698;1101;23342;-82
2020/12/18 11:36:01;;;;;;;48.02;30.43;;;;;;;8.26;71.52;101451.47;126704;1100;23334;-82
2020/12/18 11:38:29;;;;;;;46.37;31.55;;;;;;;8.26;70.91;101450.61;126709;1100;23341;-83
2020/12/18 11:40:57;;;;;;;51.08;33.60;;;;;;;8.24;71.02;101449.91;126826;1100;23370;-81
2020/12/18 11:43:25;;;;;;;46.23;30.72;;;;;;;8.28;71.11;101445.85;126619;1100;23427;-81